This is the latest recevied weather packets stored in our database for station/object XE2MEM-21. If no packets are shown the sender has not sent any weather packets the latest 10 day(s).
| Time | Temp. | Humidity | Pressure | Rain* | Wind** | Luminosity | Snow |
|---|---|---|---|---|---|---|---|
| 1777596977 | 30.56° C | 77% | 1002.1 hPa | - | - | - | - |
| 1777596685 | 31.11° C | 77% | 1001.9 hPa | - | - | - | - |
| 1777595785 | 31.67° C | 77% | 1001.4 hPa | - | - | - | - |
| 1777594885 | 31.67° C | 78% | 1001.1 hPa | - | - | - | - |
| 1777593985 | 32.22° C | 77% | 1000.9 hPa | - | - | - | - |
| 1777593085 | 32.22° C | 78% | 1000.9 hPa | - | - | - | - |
| 1777592185 | 32.22° C | 76% | 1001.1 hPa | - | - | - | - |
| 1777591285 | 32.78° C | 75% | 1000.8 hPa | - | - | - | - |
| 1777591179 | 32.78° C | 75% | 1000.9 hPa | - | - | - | - |
| 1777591028 | 33.33° C | 74% | 1000.9 hPa | - | - | - | - |
| 1777590863 | 33.33° C | 73% | 1000.8 hPa | - | - | - | - |
| 1777589962 | 33.33° C | 72% | 1000.6 hPa | - | - | - | - |
| 1777584561 | 33.89° C | 70% | 1000.8 hPa | - | - | - | - |
| 1777584076 | 33.89° C | 69% | 1000.9 hPa | - | - | - | - |
| 1777583176 | 33.89° C | 68% | 1001 hPa | - | - | - | - |
| 1777582276 | 35.56° C | 62% | 1001.3 hPa | - | - | - | - |
| 1777581902 | 35.56° C | 61% | 1001.6 hPa | - | - | - | - |
| 1777581002 | 35° C | 64% | 1001.8 hPa | - | - | - | - |
| 1777580467 | 34.44° C | 66% | 1001.8 hPa | - | - | - | - |
| 1777565606 | 32.22° C | 97% | 1005.2 hPa | - | - | - | - |
| 1777564706 | 32.22° C | 100% | 1005.3 hPa | - | - | - | - |
| 1777563849 | 31.67° C | 100% | 1005.4 hPa | - | - | - | - |
| 1777556166 | 28.89° C | 100% | 1005.5 hPa | - | - | - | - |
| 1777555993 | 28.33° C | 100% | 1005.6 hPa | - | - | - | - |
| 1777554918 | 26.67° C | 100% | 1005.4 hPa | - | - | - | - |
* Rain since midnight (hover to see other rain measurements)
** Current wind speed in m/s (hover to see current wind gust speed)